sensor_id;sensor_type;location;lat;lon;timestamp;pressure;altitude;pressure_sealevel;temperature;humidity
13661;BME280;6903;49.480;11.102;2023-07-13T00:01:43;97704.56;;;22.10;100.00
13661;BME280;6903;49.480;11.102;2023-07-13T00:04:11;97689.69;;;22.08;100.00
13661;BME280;6903;49.480;11.102;2023-07-13T00:06:36;97693.00;;;22.03;100.00
13661;BME280;6903;49.480;11.102;2023-07-13T00:09:01;97692.56;;;22.00;100.00
13661;BME280;6903;49.480;11.102;2023-07-13T00:11:27;97683.63;;;21.93;100.00
13661;BME280;6903;49.480;11.102;2023-07-13T00:13:53;97673.50;;;21.88;100.00
13661;BME280;6903;49.480;11.102;2023-07-13T00:16:19;97665.84;;;21.85;100.00
13661;BME280;6903;49.480;11.102;2023-07-13T00:18:45;97666.44;;;21.81;100.00
13661;BME280;6903;49.480;11.102;2023-07-13T00:21:11;97665.34;;;21.75;100.00
13661;BME280;6903;49.480;11.102;2023-07-13T00:23:40;97662.81;;;21.67;100.00
13661;BME280;6903;49.480;11.102;2023-07-13T00:26:07;97653.03;;;21.53;100.00
13661;BME280;6903;49.480;11.102;2023-07-13T00:28:34;97657.72;;;21.45;100.00
13661;BME280;6903;49.480;11.102;2023-07-13T00:31:00;97663.25;;;21.37;100.00
13661;BME280;6903;49.480;11.102;2023-07-13T00:33:27;97666.72;;;21.31;100.00
13661;BME280;6903;49.480;11.102;2023-07-13T00:35:54;97663.59;;;21.27;100.00
13661;BME280;6903;49.480;11.102;2023-07-13T00:38:19;97665.44;;;21.27;100.00
13661;BME280;6903;49.480;11.102;2023-07-13T00:40:44;97677.84;;;21.28;100.00
13661;BME280;6903;49.480;11.102;2023-07-13T00:43:15;97678.84;;;21.27;100.00
13661;BME280;6903;49.480;11.102;2023-07-13T00:48:15;97685.25;;;21.26;100.00
13661;BME280;6903;49.480;11.102;2023-07-13T00:50:44;97693.31;;;21.26;100.00
13661;BME280;6903;49.480;11.102;2023-07-13T00:53:10;97693.31;;;21.26;100.00
13661;BME280;6903;49.480;11.102;2023-07-13T00:55:37;97703.00;;;21.27;100.00
13661;BME280;6903;49.480;11.102;2023-07-13T00:58:03;97698.84;;;21.24;100.00
13661;BME280;6903;49.480;11.102;2023-07-13T01:00:30;97702.94;;;21.20;100.00
13661;BME280;6903;49.480;11.102;2023-07-13T01:02:56;97701.22;;;21.13;100.00
13661;BME280;6903;49.480;11.102;2023-07-13T01:05:22;97699.34;;;21.07;100.00
13661;BME280;6903;49.480;11.102;2023-07-13T01:07:49;97698.06;;;21.02;100.00
13661;BME280;6903;49.480;11.102;2023-07-13T01:10:15;97691.16;;;20.93;100.00
13661;BME280;6903;49.480;11.102;2023-07-13T01:12:41;97684.88;;;20.86;100.00
13661;BME280;6903;49.480;11.102;2023-07-13T01:15:40;97695.72;;;20.78;100.00
13661;BME280;6903;49.480;11.102;2023-07-13T01:18:20;97686.19;;;20.69;100.00
13661;BME280;6903;49.480;11.102;2023-07-13T01:20:56;97679.28;;;20.60;100.00
13661;BME280;6903;49.480;11.102;2023-07-13T01:23:23;97681.06;;;20.53;100.00
13661;BME280;6903;49.480;11.102;2023-07-13T01:25:50;97683.88;;;20.45;100.00
13661;BME280;6903;49.480;11.102;2023-07-13T01:28:16;97693.03;;;20.36;100.00
13661;BME280;6903;49.480;11.102;2023-07-13T01:30:42;97692.53;;;20.26;100.00
13661;BME280;6903;49.480;11.102;2023-07-13T01:33:14;97689.97;;;20.18;100.00
13661;BME280;6903;49.480;11.102;2023-07-13T01:35:41;97685.28;;;20.12;100.00
13661;BME280;6903;49.480;11.102;2023-07-13T01:38:07;97681.72;;;20.05;100.00
13661;BME280;6903;49.480;11.102;2023-07-13T01:40:34;97685.78;;;20.01;100.00
13661;BME280;6903;49.480;11.102;2023-07-13T01:42:59;97694.38;;;19.97;100.00
13661;BME280;6903;49.480;11.102;2023-07-13T01:45:25;97685.03;;;19.93;100.00
13661;BME280;6903;49.480;11.102;2023-07-13T01:47:50;97680.25;;;19.88;100.00
13661;BME280;6903;49.480;11.102;2023-07-13T01:50:15;97677.13;;;19.85;100.00
13661;BME280;6903;49.480;11.102;2023-07-13T01:52:41;97678.53;;;19.81;100.00
13661;BME280;6903;49.480;11.102;2023-07-13T01:55:07;97681.75;;;19.76;100.00
13661;BME280;6903;49.480;11.102;2023-07-13T01:57:32;97673.47;;;19.71;100.00
13661;BME280;6903;49.480;11.102;2023-07-13T01:59:58;97675.84;;;19.66;100.00
13661;BME280;6903;49.480;11.102;2023-07-13T02:02:24;97681.97;;;19.60;100.00
13661;BME280;6903;49.480;11.102;2023-07-13T02:04:49;97682.06;;;19.52;100.00
13661;BME280;6903;49.480;11.102;2023-07-13T02:07:14;97694.47;;;19.45;100.00
13661;BME280;6903;49.480;11.102;2023-07-13T02:09:40;97692.75;;;19.37;100.00
13661;BME280;6903;49.480;11.102;2023-07-13T02:12:07;97693.28;;;19.33;100.00
13661;BME280;6903;49.480;11.102;2023-07-13T02:14:33;97680.59;;;19.27;100.00
13661;BME280;6903;49.480;11.102;2023-07-13T02:16:58;97676.47;;;19.24;100.00
13661;BME280;6903;49.480;11.102;2023-07-13T02:19:24;97679.69;;;19.20;100.00
13661;BME280;6903;49.480;11.102;2023-07-13T02:21:49;97681.03;;;19.16;100.00
13661;BME280;6903;49.480;11.102;2023-07-13T02:24:14;97688.78;;;19.11;100.00
13661;BME280;6903;49.480;11.102;2023-07-13T02:26:43;97684.81;;;19.07;100.00
13661;BME280;6903;49.480;11.102;2023-07-13T02:29:09;97692.53;;;19.02;100.00
13661;BME280;6903;49.480;11.102;2023-07-13T02:31:34;97692.25;;;18.97;100.00
13661;BME280;6903;49.480;11.102;2023-07-13T02:34:01;97699.78;;;18.93;100.00
13661;BME280;6903;49.480;11.102;2023-07-13T02:36:26;97695.19;;;18.87;100.00
13661;BME280;6903;49.480;11.102;2023-07-13T02:38:51;97696.72;;;18.82;100.00
13661;BME280;6903;49.480;11.102;2023-07-13T02:41:17;97697.44;;;18.76;100.00
13661;BME280;6903;49.480;11.102;2023-07-13T02:43:42;97695.13;;;18.73;100.00
13661;BME280;6903;49.480;11.102;2023-07-13T02:46:07;97694.81;;;18.68;100.00
13661;BME280;6903;49.480;11.102;2023-07-13T02:48:33;97698.03;;;18.63;100.00
13661;BME280;6903;49.480;11.102;2023-07-13T02:50:59;97700.22;;;18.60;100.00
13661;BME280;6903;49.480;11.102;2023-07-13T02:53:24;97702.41;;;18.56;100.00
13661;BME280;6903;49.480;11.102;2023-07-13T02:55:50;97700.28;;;18.52;100.00
13661;BME280;6903;49.480;11.102;2023-07-13T02:58:15;97710.47;;;18.48;100.00
13661;BME280;6903;49.480;11.102;2023-07-13T03:00:42;97724.38;;;18.44;100.00
13661;BME280;6903;49.480;11.102;2023-07-13T03:03:07;97717.69;;;18.40;100.00
13661;BME280;6903;49.480;11.102;2023-07-13T03:05:33;97707.72;;;18.33;100.00
13661;BME280;6903;49.480;11.102;2023-07-13T03:07:58;97718.06;;;18.28;100.00
13661;BME280;6903;49.480;11.102;2023-07-13T03:10:23;97713.09;;;18.25;100.00
13661;BME280;6903;49.480;11.102;2023-07-13T03:12:49;97721.81;;;18.19;100.00
13661;BME280;6903;49.480;11.102;2023-07-13T03:15:14;97725.81;;;18.15;100.00
13661;BME280;6903;49.480;11.102;2023-07-13T03:17:39;97734.53;;;18.09;100.00
13661;BME280;6903;49.480;11.102;2023-07-13T03:20:05;97741.56;;;18.02;100.00
13661;BME280;6903;49.480;11.102;2023-07-13T03:22:32;97744.75;;;17.98;100.00
13661;BME280;6903;49.480;11.102;2023-07-13T03:24:57;97751.63;;;17.92;100.00
13661;BME280;6903;49.480;11.102;2023-07-13T03:27:22;97751.78;;;17.91;100.00
13661;BME280;6903;49.480;11.102;2023-07-13T03:29:48;97759.47;;;17.86;100.00
13661;BME280;6903;49.480;11.102;2023-07-13T03:32:13;97760.31;;;17.78;100.00
13661;BME280;6903;49.480;11.102;2023-07-13T03:34:38;97754.00;;;17.71;100.00
13661;BME280;6903;49.480;11.102;2023-07-13T03:37:04;97765.19;;;17.67;100.00
13661;BME280;6903;49.480;11.102;2023-07-13T03:39:29;97762.03;;;17.63;100.00
13661;BME280;6903;49.480;11.102;2023-07-13T03:41:55;97772.38;;;17.58;100.00
13661;BME280;6903;49.480;11.102;2023-07-13T03:44:20;97779.03;;;17.54;100.00
13661;BME280;6903;49.480;11.102;2023-07-13T03:46:46;97779.03;;;17.54;100.00
13661;BME280;6903;49.480;11.102;2023-07-13T03:49:11;97776.38;;;17.54;100.00
13661;BME280;6903;49.480;11.102;2023-07-13T03:51:37;97769.03;;;17.56;100.00
13661;BME280;6903;49.480;11.102;2023-07-13T03:54:03;97777.03;;;17.56;100.00
13661;BME280;6903;49.480;11.102;2023-07-13T03:56:29;97766.03;;;17.59;100.00
13661;BME280;6903;49.480;11.102;2023-07-13T03:58:58;97777.38;;;17.61;100.00
13661;BME280;6903;49.480;11.102;2023-07-13T04:01:24;97781.38;;;17.65;100.00
13661;BME280;6903;49.480;11.102;2023-07-13T04:03:50;97786.66;;;17.81;100.00
13661;BME280;6903;49.480;11.102;2023-07-13T04:06:21;97791.56;;;18.08;100.00
13661;BME280;6903;49.480;11.102;2023-07-13T04:08:59;97809.63;;;18.37;100.00
13661;BME280;6903;49.480;11.102;2023-07-13T04:11:27;97808.03;;;18.67;100.00
13661;BME280;6903;49.480;11.102;2023-07-13T04:13:53;97815.41;;;18.87;100.00
13661;BME280;6903;49.480;11.102;2023-07-13T04:16:19;97817.00;;;18.96;100.00
13661;BME280;6903;49.480;11.102;2023-07-13T04:18:46;97815.00;;;18.98;100.00
13661;BME280;6903;49.480;11.102;2023-07-13T04:21:12;97819.84;;;18.95;100.00
13661;BME280;6903;49.480;11.102;2023-07-13T04:23:39;97813.53;;;18.96;100.00
13661;BME280;6903;49.480;11.102;2023-07-13T04:26:05;97809.16;;;18.95;100.00
13661;BME280;6903;49.480;11.102;2023-07-13T04:28:31;97803.81;;;18.95;100.00
13661;BME280;6903;49.480;11.102;2023-07-13T04:30:56;97810.19;;;18.94;100.00
13661;BME280;6903;49.480;11.102;2023-07-13T04:33:22;97817.84;;;18.97;100.00
13661;BME280;6903;49.480;11.102;2023-07-13T04:35:48;97805.38;;;19.12;100.00
13661;BME280;6903;49.480;11.102;2023-07-13T04:38:14;97817.66;;;19.21;100.00
13661;BME280;6903;49.480;11.102;2023-07-13T04:40:44;97819.09;;;19.31;100.00
13661;BME280;6903;49.480;11.102;2023-07-13T04:43:09;97821.56;;;19.41;100.00
13661;BME280;6903;49.480;11.102;2023-07-13T04:45:35;97813.19;;;19.44;100.00
13661;BME280;6903;49.480;11.102;2023-07-13T04:48:00;97821.50;;;19.49;100.00
13661;BME280;6903;49.480;11.102;2023-07-13T04:50:25;97822.03;;;19.59;100.00
13661;BME280;6903;49.480;11.102;2023-07-13T04:52:50;97823.38;;;19.78;100.00
13661;BME280;6903;49.480;11.102;2023-07-13T04:55:16;97825.34;;;19.98;100.00
13661;BME280;6903;49.480;11.102;2023-07-13T04:57:41;97826.75;;;20.23;100.00
13661;BME280;6903;49.480;11.102;2023-07-13T05:00:07;97820.47;;;20.60;100.00
13661;BME280;6903;49.480;11.102;2023-07-13T05:02:33;97829.69;;;21.08;100.00
13661;BME280;6903;49.480;11.102;2023-07-13T05:05:00;97842.00;;;21.44;100.00
13661;BME280;6903;49.480;11.102;2023-07-13T05:07:26;97837.00;;;21.62;100.00
13661;BME280;6903;49.480;11.102;2023-07-13T05:09:52;97840.00;;;21.74;100.00
13661;BME280;6903;49.480;11.102;2023-07-13T05:12:17;97846.91;;;21.83;100.00
13661;BME280;6903;49.480;11.102;2023-07-13T05:14:43;97845.38;;;21.95;100.00
13661;BME280;6903;49.480;11.102;2023-07-13T05:17:08;97841.34;;;22.12;100.00
13661;BME280;6903;49.480;11.102;2023-07-13T05:19:34;97851.81;;;22.34;100.00
13661;BME280;6903;49.480;11.102;2023-07-13T05:21:59;97852.66;;;22.35;100.00
13661;BME280;6903;49.480;11.102;2023-07-13T05:24:25;97852.22;;;22.31;100.00
13661;BME280;6903;49.480;11.102;2023-07-13T05:26:50;97858.47;;;22.38;100.00
13661;BME280;6903;49.480;11.102;2023-07-13T05:29:15;97861.31;;;22.65;100.00
13661;BME280;6903;49.480;11.102;2023-07-13T05:31:41;97860.84;;;22.95;100.00
13661;BME280;6903;49.480;11.102;2023-07-13T05:34:06;97863.03;;;23.26;98.50
13661;BME280;6903;49.480;11.102;2023-07-13T05:36:31;97857.91;;;23.70;96.51
13661;BME280;6903;49.480;11.102;2023-07-13T05:38:57;97853.97;;;24.18;90.47
13661;BME280;6903;49.480;11.102;2023-07-13T05:41:22;97861.13;;;24.63;87.35
13661;BME280;6903;49.480;11.102;2023-07-13T05:43:47;97855.75;;;25.14;83.84
13661;BME280;6903;49.480;11.102;2023-07-13T05:46:13;97861.41;;;25.44;80.06
13661;BME280;6903;49.480;11.102;2023-07-13T05:48:38;97865.56;;;25.77;76.73
13661;BME280;6903;49.480;11.102;2023-07-13T05:51:04;97864.47;;;26.09;74.94
13661;BME280;6903;49.480;11.102;2023-07-13T05:53:29;97865.88;;;26.36;72.84
13661;BME280;6903;49.480;11.102;2023-07-13T05:55:55;97873.31;;;26.41;71.06
13661;BME280;6903;49.480;11.102;2023-07-13T05:58:20;97879.19;;;26.56;70.11
13661;BME280;6903;49.480;11.102;2023-07-13T06:00:47;97882.13;;;26.55;69.41
13661;BME280;6903;49.480;11.102;2023-07-13T06:03:13;97875.25;;;26.77;68.05
13661;BME280;6903;49.480;11.102;2023-07-13T06:05:39;97874.09;;;26.66;65.74
13661;BME280;6903;49.480;11.102;2023-07-13T06:08:05;97871.03;;;26.63;64.80
13661;BME280;6903;49.480;11.102;2023-07-13T06:10:35;97878.38;;;26.56;65.22
13661;BME280;6903;49.480;11.102;2023-07-13T06:13:01;97885.38;;;26.81;63.89
13661;BME280;6903;49.480;11.102;2023-07-13T06:15:26;97884.31;;;27.18;63.03
13661;BME280;6903;49.480;11.102;2023-07-13T06:17:52;97882.88;;;27.34;61.48
13661;BME280;6903;49.480;11.102;2023-07-13T06:20:17;97893.44;;;27.06;60.88
13661;BME280;6903;49.480;11.102;2023-07-13T06:22:42;97884.06;;;26.72;61.10
13661;BME280;6903;49.480;11.102;2023-07-13T06:25:08;97893.03;;;26.48;61.33
13661;BME280;6903;49.480;11.102;2023-07-13T06:27:33;97889.75;;;26.39;61.75
13661;BME280;6903;49.480;11.102;2023-07-13T06:29:59;97892.25;;;26.66;61.73
13661;BME280;6903;49.480;11.102;2023-07-13T06:32:24;97896.59;;;27.03;60.34
13661;BME280;6903;49.480;11.102;2023-07-13T06:34:49;97887.47;;;27.33;58.74
13661;BME280;6903;49.480;11.102;2023-07-13T06:37:16;97895.34;;;27.64;57.42
13661;BME280;6903;49.480;11.102;2023-07-13T06:39:42;97899.59;;;28.02;56.75
13661;BME280;6903;49.480;11.102;2023-07-13T06:42:07;97892.78;;;28.34;55.76
13661;BME280;6903;49.480;11.102;2023-07-13T06:44:32;97902.16;;;28.61;54.21
13661;BME280;6903;49.480;11.102;2023-07-13T06:46:58;97904.09;;;28.88;54.00
13661;BME280;6903;49.480;11.102;2023-07-13T06:49:23;97905.19;;;28.87;52.63
13661;BME280;6903;49.480;11.102;2023-07-13T06:51:48;97905.19;;;28.41;53.25
13661;BME280;6903;49.480;11.102;2023-07-13T06:54:14;97918.00;;;28.11;53.77
13661;BME280;6903;49.480;11.102;2023-07-13T06:56:39;97920.56;;;27.95;53.51
13661;BME280;6903;49.480;11.102;2023-07-13T06:59:04;97912.75;;;27.87;53.85
13661;BME280;6903;49.480;11.102;2023-07-13T07:01:30;97917.63;;;27.96;53.62
13661;BME280;6903;49.480;11.102;2023-07-13T07:03:55;97922.44;;;27.94;53.73
13661;BME280;6903;49.480;11.102;2023-07-13T07:06:21;97923.97;;;27.90;54.14
13661;BME280;6903;49.480;11.102;2023-07-13T07:08:48;97923.59;;;27.87;54.48
13661;BME280;6903;49.480;11.102;2023-07-13T07:11:21;97925.78;;;28.19;53.24
13661;BME280;6903;49.480;11.102;2023-07-13T07:13:48;97925.34;;;28.45;52.63
13661;BME280;6903;49.480;11.102;2023-07-13T07:16:13;97920.66;;;28.64;51.99
13661;BME280;6903;49.480;11.102;2023-07-13T07:18:39;97919.84;;;28.63;51.88
13661;BME280;6903;49.480;11.102;2023-07-13T07:21:04;97924.78;;;28.78;51.21
13661;BME280;6903;49.480;11.102;2023-07-13T07:23:30;97925.34;;;29.15;50.62
13661;BME280;6903;49.480;11.102;2023-07-13T07:25:55;97929.13;;;29.42;49.36
13661;BME280;6903;49.480;11.102;2023-07-13T07:28:21;97938.44;;;29.57;48.66
13661;BME280;6903;49.480;11.102;2023-07-13T07:30:47;97934.97;;;29.62;48.62
13661;BME280;6903;49.480;11.102;2023-07-13T07:33:14;97934.19;;;29.50;47.65
13661;BME280;6903;49.480;11.102;2023-07-13T07:35:39;97938.41;;;29.29;47.40
13661;BME280;6903;49.480;11.102;2023-07-13T07:38:05;97940.53;;;29.27;47.16
13661;BME280;6903;49.480;11.102;2023-07-13T07:40:30;97936.72;;;29.40;47.34
13661;BME280;6903;49.480;11.102;2023-07-13T07:42:57;97947.50;;;29.63;47.45
13661;BME280;6903;49.480;11.102;2023-07-13T07:45:22;97943.72;;;29.64;45.75
13661;BME280;6903;49.480;11.102;2023-07-13T07:47:48;97943.28;;;29.55;45.43
13661;BME280;6903;49.480;11.102;2023-07-13T07:50:14;97946.38;;;29.47;45.41
13661;BME280;6903;49.480;11.102;2023-07-13T07:52:39;97945.03;;;29.33;45.34
13661;BME280;6903;49.480;11.102;2023-07-13T07:55:06;97955.16;;;29.38;45.29
13661;BME280;6903;49.480;11.102;2023-07-13T07:57:31;97962.53;;;29.54;44.42
13661;BME280;6903;49.480;11.102;2023-07-13T07:59:57;97966.28;;;29.64;44.28
13661;BME280;6903;49.480;11.102;2023-07-13T08:02:22;97960.00;;;29.75;44.08
13661;BME280;6903;49.480;11.102;2023-07-13T08:04:47;97969.00;;;29.64;43.97
13661;BME280;6903;49.480;11.102;2023-07-13T08:07:13;97963.78;;;29.74;44.08
13661;BME280;6903;49.480;11.102;2023-07-13T08:09:38;97956.56;;;29.80;44.26
13661;BME280;6903;49.480;11.102;2023-07-13T08:12:04;97955.25;;;30.27;42.79
13661;BME280;6903;49.480;11.102;2023-07-13T08:14:29;97960.56;;;30.83;42.44
13661;BME280;6903;49.480;11.102;2023-07-13T08:16:55;97959.88;;;31.31;41.46
13661;BME280;6903;49.480;11.102;2023-07-13T08:19:20;97973.06;;;31.60;39.12
13661;BME280;6903;49.480;11.102;2023-07-13T08:21:45;97970.81;;;31.57;37.46
13661;BME280;6903;49.480;11.102;2023-07-13T08:24:13;97965.19;;;31.04;37.95
13661;BME280;6903;49.480;11.102;2023-07-13T08:26:39;97972.31;;;30.72;39.13
13661;BME280;6903;49.480;11.102;2023-07-13T08:29:04;97971.13;;;31.01;37.90
13661;BME280;6903;49.480;11.102;2023-07-13T08:31:29;97962.00;;;31.07;36.98
13661;BME280;6903;49.480;11.102;2023-07-13T08:33:55;97967.66;;;31.06;36.06
13661;BME280;6903;49.480;11.102;2023-07-13T08:36:20;97972.19;;;30.46;35.44
13661;BME280;6903;49.480;11.102;2023-07-13T08:38:45;97975.28;;;30.71;35.49
13661;BME280;6903;49.480;11.102;2023-07-13T08:41:14;97964.91;;;30.68;34.20
13661;BME280;6903;49.480;11.102;2023-07-13T08:43:41;97961.34;;;31.00;35.63
13661;BME280;6903;49.480;11.102;2023-07-13T08:46:36;97961.25;;;31.55;34.09
13661;BME280;6903;49.480;11.102;2023-07-13T08:49:20;97968.25;;;32.21;34.04
13661;BME280;6903;49.480;11.102;2023-07-13T08:51:56;97982.75;;;32.84;32.95
13661;BME280;6903;49.480;11.102;2023-07-13T08:54:40;97982.59;;;33.48;31.45
13661;BME280;6903;49.480;11.102;2023-07-13T08:57:15;97982.50;;;33.33;30.69
13661;BME280;6903;49.480;11.102;2023-07-13T08:59:41;97983.53;;;33.27;30.65
13661;BME280;6903;49.480;11.102;2023-07-13T09:02:17;97990.81;;;33.53;30.40
13661;BME280;6903;49.480;11.102;2023-07-13T09:05:09;98007.03;;;33.69;30.01
13661;BME280;6903;49.480;11.102;2023-07-13T09:08:25;97991.66;;;33.58;28.15
13661;BME280;6903;49.480;11.102;2023-07-13T09:10:32;97994.31;;;33.43;29.21
13661;BME280;6903;49.480;11.102;2023-07-13T09:13:28;97984.09;;;33.85;29.58
13661;BME280;6903;49.480;11.102;2023-07-13T09:15:59;97989.66;;;34.20;29.39
13661;BME280;6903;49.480;11.102;2023-07-13T09:18:35;97989.72;;;34.51;28.67
13661;BME280;6903;49.480;11.102;2023-07-13T09:21:18;97992.75;;;34.59;27.02
13661;BME280;6903;49.480;11.102;2023-07-13T09:23:47;97988.63;;;34.72;27.33
13661;BME280;6903;49.480;11.102;2023-07-13T09:26:21;97993.00;;;35.08;26.82
13661;BME280;6903;49.480;11.102;2023-07-13T09:28:49;97985.22;;;35.50;27.32
13661;BME280;6903;49.480;11.102;2023-07-13T09:31:33;97995.00;;;35.71;26.59
13661;BME280;6903;49.480;11.102;2023-07-13T09:33:59;97994.19;;;35.65;26.62
13661;BME280;6903;49.480;11.102;2023-07-13T09:36:31;97998.81;;;35.80;26.46
13661;BME280;6903;49.480;11.102;2023-07-13T09:39:10;97998.13;;;36.13;25.66
13661;BME280;6903;49.480;11.102;2023-07-13T09:41:45;97991.97;;;35.78;25.02
13661;BME280;6903;49.480;11.102;2023-07-13T09:44:14;97988.47;;;36.16;25.57
13661;BME280;6903;49.480;11.102;2023-07-13T09:46:45;97988.91;;;35.89;25.85
13661;BME280;6903;49.480;11.102;2023-07-13T09:49:11;97985.81;;;36.01;25.05
13661;BME280;6903;49.480;11.102;2023-07-13T09:51:39;97991.44;;;36.24;24.61
13661;BME280;6903;49.480;11.102;2023-07-13T09:54:05;97996.78;;;36.49;24.32
13661;BME280;6903;49.480;11.102;2023-07-13T09:56:31;97983.59;;;36.46;22.78
13661;BME280;6903;49.480;11.102;2023-07-13T09:58:57;97993.75;;;36.84;23.09
13661;BME280;6903;49.480;11.102;2023-07-13T10:01:37;97997.06;;;36.81;23.17
13661;BME280;6903;49.480;11.102;2023-07-13T10:04:11;97984.16;;;36.82;22.43
13661;BME280;6903;49.480;11.102;2023-07-13T10:06:38;98002.50;;;36.53;22.15
13661;BME280;6903;49.480;11.102;2023-07-13T10:09:07;97990.19;;;36.07;22.88
13661;BME280;6903;49.480;11.102;2023-07-13T10:11:35;97984.69;;;35.48;23.08
13661;BME280;6903;49.480;11.102;2023-07-13T10:14:10;97986.19;;;35.84;23.77
13661;BME280;6903;49.480;11.102;2023-07-13T10:16:37;97997.38;;;36.41;23.09
13661;BME280;6903;49.480;11.102;2023-07-13T10:19:17;97997.72;;;36.68;22.53
13661;BME280;6903;49.480;11.102;2023-07-13T10:21:56;97988.38;;;36.69;23.49
13661;BME280;6903;49.480;11.102;2023-07-13T10:24:26;98004.31;;;37.01;22.18
13661;BME280;6903;49.480;11.102;2023-07-13T10:26:56;97996.53;;;36.79;22.47
13661;BME280;6903;49.480;11.102;2023-07-13T10:29:25;97999.00;;;36.81;22.59
13661;BME280;6903;49.480;11.102;2023-07-13T10:31:52;98003.03;;;36.93;22.46
13661;BME280;6903;49.480;11.102;2023-07-13T10:34:17;98005.31;;;36.76;22.51
13661;BME280;6903;49.480;11.102;2023-07-13T10:36:45;97995.47;;;36.75;22.69
13661;BME280;6903;49.480;11.102;2023-07-13T10:39:18;98004.16;;;36.87;22.64
13661;BME280;6903;49.480;11.102;2023-07-13T10:41:48;97999.16;;;37.23;22.37
13661;BME280;6903;49.480;11.102;2023-07-13T10:44:26;98004.78;;;36.79;22.29
13661;BME280;6903;49.480;11.102;2023-07-13T10:46:56;98002.44;;;36.24;21.91
13661;BME280;6903;49.480;11.102;2023-07-13T10:49:22;97997.16;;;36.28;22.28
13661;BME280;6903;49.480;11.102;2023-07-13T10:51:48;97986.75;;;36.25;22.41
13661;BME280;6903;49.480;11.102;2023-07-13T10:54:17;97987.03;;;36.62;22.39
13661;BME280;6903;49.480;11.102;2023-07-13T10:56:43;97995.81;;;36.64;22.13
13661;BME280;6903;49.480;11.102;2023-07-13T10:59:17;97998.28;;;36.27;22.87
13661;BME280;6903;49.480;11.102;2023-07-13T11:01:54;97996.22;;;35.35;22.71
13661;BME280;6903;49.480;11.102;2023-07-13T11:04:21;97989.19;;;34.99;22.88
13661;BME280;6903;49.480;11.102;2023-07-13T11:06:53;97993.00;;;34.93;23.64
13661;BME280;6903;49.480;11.102;2023-07-13T11:09:32;97988.09;;;34.75;23.40
13661;BME280;6903;49.480;11.102;2023-07-13T11:12:00;97994.69;;;34.89;23.49
13661;BME280;6903;49.480;11.102;2023-07-13T11:19:51;97983.66;;;35.93;23.85
13661;BME280;6903;49.480;11.102;2023-07-13T11:22:21;97990.72;;;36.04;23.08
13661;BME280;6903;49.480;11.102;2023-07-13T11:25:02;97980.31;;;35.42;23.05
13661;BME280;6903;49.480;11.102;2023-07-13T11:27:35;97983.66;;;35.09;23.86
13661;BME280;6903;49.480;11.102;2023-07-13T11:30:24;97965.84;;;35.06;23.41
13661;BME280;6903;49.480;11.102;2023-07-13T11:32:52;97971.56;;;35.20;23.63
13661;BME280;6903;49.480;11.102;2023-07-13T11:35:31;97972.63;;;35.34;23.13
13661;BME280;6903;49.480;11.102;2023-07-13T11:37:58;97975.38;;;35.34;23.55
13661;BME280;6903;49.480;11.102;2023-07-13T11:40:26;97974.00;;;35.26;23.85
13661;BME280;6903;49.480;11.102;2023-07-13T11:42:59;97971.53;;;35.30;23.74
13661;BME280;6903;49.480;11.102;2023-07-13T11:45:24;97969.97;;;35.04;24.28
13661;BME280;6903;49.480;11.102;2023-07-13T11:47:49;97970.53;;;34.56;24.32
13661;BME280;6903;49.480;11.102;2023-07-13T11:50:20;97965.63;;;34.48;24.90
13661;BME280;6903;49.480;11.102;2023-07-13T11:52:46;97972.19;;;34.47;24.60
13661;BME280;6903;49.480;11.102;2023-07-13T11:55:16;97973.53;;;34.24;24.92
13661;BME280;6903;49.480;11.102;2023-07-13T11:57:55;97973.25;;;34.35;24.58
13661;BME280;6903;49.480;11.102;2023-07-13T12:00:25;97966.44;;;34.43;24.63
13661;BME280;6903;49.480;11.102;2023-07-13T12:02:53;97970.81;;;34.34;24.73
13661;BME280;6903;49.480;11.102;2023-07-13T12:05:19;97974.00;;;33.96;24.70
13661;BME280;6903;49.480;11.102;2023-07-13T12:07:50;97979.16;;;33.82;25.31
13661;BME280;6903;49.480;11.102;2023-07-13T12:10:21;97965.75;;;33.76;25.40
13661;BME280;6903;49.480;11.102;2023-07-13T12:12:57;97970.50;;;34.00;25.55
13661;BME280;6903;49.480;11.102;2023-07-13T12:15:27;97970.81;;;34.39;25.35
13661;BME280;6903;49.480;11.102;2023-07-13T12:17:53;97980.38;;;34.87;25.11
13661;BME280;6903;49.480;11.102;2023-07-13T12:20:37;97977.84;;;35.30;24.38
13661;BME280;6903;49.480;11.102;2023-07-13T12:23:20;97979.00;;;35.14;24.65
13661;BME280;6903;49.480;11.102;2023-07-13T12:25:47;97976.00;;;35.06;24.61
13661;BME280;6903;49.480;11.102;2023-07-13T12:28:33;97966.94;;;34.30;25.39
13661;BME280;6903;49.480;11.102;2023-07-13T12:31:08;97969.25;;;33.61;25.64
13661;BME280;6903;49.480;11.102;2023-07-13T12:33:44;97969.59;;;33.90;25.71
13661;BME280;6903;49.480;11.102;2023-07-13T12:36:11;97971.91;;;34.43;25.84
13661;BME280;6903;49.480;11.102;2023-07-13T12:38:37;97967.25;;;34.69;25.55
13661;BME280;6903;49.480;11.102;2023-07-13T12:41:02;97967.53;;;34.87;25.53
13661;BME280;6903;49.480;11.102;2023-07-13T12:43:33;97971.34;;;34.96;25.61
13661;BME280;6903;49.480;11.102;2023-07-13T12:46:05;97965.56;;;35.18;25.11
13661;BME280;6903;49.480;11.102;2023-07-13T12:48:42;97969.06;;;35.33;25.01
13661;BME280;6903;49.480;11.102;2023-07-13T12:51:11;97973.13;;;35.51;24.96
13661;BME280;6903;49.480;11.102;2023-07-13T12:53:58;97970.13;;;35.52;25.19
13661;BME280;6903;49.480;11.102;2023-07-13T12:56:32;97963.88;;;35.37;24.50
13661;BME280;6903;49.480;11.102;2023-07-13T12:59:02;97963.94;;;35.07;25.10
13661;BME280;6903;49.480;11.102;2023-07-13T13:01:29;97957.63;;;35.06;25.14
13661;BME280;6903;49.480;11.102;2023-07-13T13:04:01;97963.41;;;34.80;25.07
13661;BME280;6903;49.480;11.102;2023-07-13T13:06:29;97963.94;;;34.21;25.30
13661;BME280;6903;49.480;11.102;2023-07-13T13:08:56;97963.13;;;34.36;25.58